Time;durP1;ratioP1;P1;durP2;ratioP2;P2;SDS_P1;SDS_P2;PMS_P1;PMS_P2;Temp;Humidity;BMP_temperature;BMP_pressure;BME280_temperature;BME280_humidity;BME280_pressure;Samples;Min_cycle;Max_cycle;Signal;HPM_P1;HPM_P2
2023/06/18 00:01:55;;;;;;;0.20;0.20;;;16.20;99.90;;;;;;4839476;29;20069;-76
2023/06/18 00:04:20;;;;;;;0.20;0.20;;;16.20;99.90;;;;;;4814771;29;20078;-76
2023/06/18 00:06:46;;;;;;;0.20;0.20;;;16.20;99.90;;;;;;4822941;29;20042;-76
2023/06/18 00:09:12;;;;;;;0.20;0.20;;;16.10;99.90;;;;;;4833746;29;20041;-77
2023/06/18 00:11:37;;;;;;;0.10;0.10;;;16.10;99.90;;;;;;4841691;29;20050;-77
2023/06/18 00:14:03;;;;;;;0.20;0.20;;;16.10;99.90;;;;;;4821149;29;20043;-76
2023/06/18 00:16:28;;;;;;;0.20;0.20;;;16.10;99.90;;;;;;4836086;29;20053;-77
2023/06/18 00:18:54;;;;;;;0.10;0.10;;;16.00;99.90;;;;;;4821968;29;20057;-76
2023/06/18 00:21:20;;;;;;;0.10;0.10;;;16.00;99.90;;;;;;4839156;29;20057;-77
2023/06/18 00:23:45;;;;;;;0.20;0.20;;;16.00;99.90;;;;;;4815072;29;20110;-76
2023/06/18 00:26:11;;;;;;;0.20;0.20;;;15.90;99.90;;;;;;4829500;29;20053;-76
2023/06/18 00:28:37;;;;;;;0.20;0.20;;;15.90;99.90;;;;;;4822928;29;20446;-76
2023/06/18 00:31:02;;;;;;;0.20;0.20;;;15.90;99.90;;;;;;4839916;29;20419;-76
2023/06/18 00:33:29;;;;;;;0.20;0.20;;;15.90;99.90;;;;;;4827247;29;20981;-76
2023/06/18 00:35:57;;;;;;;0.20;0.20;;;15.90;99.90;;;;;;4838142;29;20541;-76
2023/06/18 00:38:35;;;;;;;0.20;0.20;;;15.90;99.90;;;;;;4838753;29;20054;-76
2023/06/18 00:41:01;;;;;;;0.20;0.20;;;15.90;99.90;;;;;;4821787;29;20491;-76
2023/06/18 00:43:29;;;;;;;0.20;0.20;;;15.90;99.90;;;;;;4830305;29;20046;-76
2023/06/18 00:45:59;;;;;;;0.10;0.10;;;15.90;99.90;;;;;;4837075;29;20098;-76
2023/06/18 00:48:25;;;;;;;0.20;0.20;;;15.90;99.90;;;;;;4838047;29;20050;-76
2023/06/18 00:50:53;;;;;;;0.20;0.20;;;16.00;99.90;;;;;;4816241;29;20105;-77
2023/06/18 00:53:20;;;;;;;0.20;0.20;;;16.00;99.90;;;;;;4814726;29;20619;-76
2023/06/18 00:55:47;;;;;;;0.20;0.20;;;16.00;99.90;;;;;;4837783;29;20132;-76
2023/06/18 00:58:14;;;;;;;0.20;0.20;;;16.00;99.90;;;;;;4837783;29;20076;-76
2023/06/18 01:00:40;;;;;;;0.20;0.20;;;16.00;99.90;;;;;;4839041;29;20050;-76
2023/06/18 01:03:16;;;;;;;0.20;0.20;;;16.00;99.90;;;;;;4816576;29;20047;-76
2023/06/18 01:05:47;;;;;;;0.15;0.15;;;15.90;99.90;;;;;;4833987;29;20056;-77
2023/06/18 01:08:14;;;;;;;0.10;0.10;;;16.00;99.90;;;;;;4821573;29;20042;-77
2023/06/18 01:10:40;;;;;;;0.15;0.15;;;15.90;99.90;;;;;;4820635;29;20053;-77
2023/06/18 01:13:12;;;;;;;0.20;0.20;;;15.80;99.90;;;;;;4839069;29;20124;-76
2023/06/18 01:15:38;;;;;;;0.20;0.20;;;15.80;99.90;;;;;;4837843;29;20487;-77
2023/06/18 01:18:07;;;;;;;0.10;0.10;;;15.80;99.90;;;;;;4839118;29;20553;-76
2023/06/18 01:20:40;;;;;;;0.20;0.20;;;15.80;99.90;;;;;;4820558;29;20418;-77
2023/06/18 01:23:15;;;;;;;0.17;0.17;;;15.80;99.90;;;;;;4820772;29;20431;-77
2023/06/18 01:25:43;;;;;;;0.20;0.20;;;15.80;99.90;;;;;;4819829;29;20057;-76
2023/06/18 01:28:10;;;;;;;0.20;0.20;;;15.70;99.90;;;;;;4822072;29;20042;-76
2023/06/18 01:30:36;;;;;;;0.20;0.20;;;15.70;99.90;;;;;;4836066;29;20371;-77
2023/06/18 01:33:03;;;;;;;0.20;0.20;;;15.70;99.90;;;;;;4819549;29;20395;-77
2023/06/18 01:35:29;;;;;;;0.13;0.13;;;15.70;99.90;;;;;;4836770;29;20129;-77
2023/06/18 01:38:01;;;;;;;0.20;0.20;;;15.60;99.90;;;;;;4838915;29;20096;-76
2023/06/18 01:40:43;;;;;;;0.20;0.20;;;15.60;99.90;;;;;;4820663;29;20066;-76
2023/06/18 01:43:45;;;;;;;0.15;0.15;;;15.60;99.90;;;;;;4816611;29;20057;-77
2023/06/18 01:46:20;;;;;;;0.20;0.20;;;15.60;99.90;;;;;;4819273;29;20637;-76
2023/06/18 01:48:51;;;;;;;0.20;0.20;;;15.60;99.90;;;;;;4819304;29;20046;-77
2023/06/18 01:51:19;;;;;;;;;;;15.60;99.90;;;;;;4833105;29;20070;-76
2023/06/18 01:53:45;;;;;;;0.20;0.20;;;15.60;99.90;;;;;;4818688;29;20381;-77
2023/06/18 01:56:13;;;;;;;0.10;0.10;;;15.60;99.90;;;;;;4833345;29;20049;-76
2023/06/18 01:58:42;;;;;;;0.20;0.20;;;15.50;99.90;;;;;;4816745;29;20061;-77
2023/06/18 02:01:11;;;;;;;0.15;0.15;;;15.40;99.90;;;;;;4818056;29;20042;-77
2023/06/18 02:03:38;;;;;;;0.20;0.20;;;15.40;99.90;;;;;;4833407;29;20932;-77
2023/06/18 02:06:04;;;;;;;0.20;0.20;;;15.40;99.90;;;;;;4814198;29;20486;-76
2023/06/18 02:08:30;;;;;;;0.20;0.20;;;15.40;99.90;;;;;;4833924;29;20596;-76
2023/06/18 02:10:56;;;;;;;0.10;0.10;;;15.40;99.90;;;;;;4836220;29;20042;-76
2023/06/18 02:13:21;;;;;;;0.20;0.20;;;15.40;99.90;;;;;;4820130;29;20073;-76
2023/06/18 02:15:47;;;;;;;0.20;0.20;;;15.40;99.90;;;;;;4837091;29;20045;-76
2023/06/18 02:18:13;;;;;;;0.20;0.20;;;15.40;99.90;;;;;;4822115;29;20046;-76
2023/06/18 02:20:40;;;;;;;0.20;0.20;;;15.40;99.90;;;;;;4835708;29;20081;-76
2023/06/18 02:23:06;;;;;;;0.20;0.20;;;15.40;99.90;;;;;;4818704;29;20049;-76
2023/06/18 02:25:32;;;;;;;0.20;0.20;;;15.40;99.90;;;;;;4835265;29;20487;-76
2023/06/18 02:27:58;;;;;;;0.10;0.10;;;15.60;99.90;;;;;;4820242;29;20533;-76
2023/06/18 02:30:31;;;;;;;0.10;0.10;;;15.40;99.90;;;;;;4818390;29;20445;-77
2023/06/18 02:33:06;;;;;;;0.20;0.20;;;15.40;99.90;;;;;;4835457;29;20574;-76
2023/06/18 02:35:32;;;;;;;0.10;0.10;;;15.40;99.90;;;;;;4821203;29;20069;-77
2023/06/18 02:37:57;;;;;;;0.20;0.20;;;15.40;99.90;;;;;;4838494;29;20042;-76
2023/06/18 02:40:23;;;;;;;0.20;0.20;;;15.30;99.90;;;;;;4822233;29;20057;-76
2023/06/18 02:42:50;;;;;;;0.20;0.20;;;15.30;99.90;;;;;;4822179;29;20141;-76
2023/06/18 02:45:20;;;;;;;0.20;0.20;;;15.30;99.90;;;;;;4832704;29;20058;-76
2023/06/18 02:47:47;;;;;;;0.20;0.20;;;15.30;99.90;;;;;;4842445;29;20065;-76
2023/06/18 02:50:14;;;;;;;0.20;0.20;;;15.30;99.90;;;;;;4821589;29;20046;-76
2023/06/18 02:52:40;;;;;;;0.20;0.20;;;15.30;99.90;;;;;;4821304;29;20045;-76
2023/06/18 02:55:07;;;;;;;0.30;0.30;;;15.30;99.90;;;;;;4839793;29;20049;-76
2023/06/18 02:57:34;;;;;;;0.20;0.20;;;15.30;99.90;;;;;;4824089;29;20423;-76
2023/06/18 03:00:00;;;;;;;0.20;0.20;;;15.30;99.90;;;;;;4840978;29;20065;-77
2023/06/18 03:02:26;;;;;;;0.20;0.20;;;15.30;99.90;;;;;;4840613;29;20555;-76
2023/06/18 03:04:52;;;;;;;0.10;0.10;;;15.40;99.90;;;;;;4839269;29;20053;-76
2023/06/18 03:07:17;;;;;;;0.20;0.20;;;15.30;99.90;;;;;;4811759;29;20042;-77
2023/06/18 03:09:43;;;;;;;0.10;0.10;;;15.40;99.90;;;;;;4839349;29;20430;-77
2023/06/18 03:12:11;;;;;;;0.10;0.10;;;15.40;99.90;;;;;;4835108;29;20471;-76
2023/06/18 03:14:37;;;;;;;0.20;0.20;;;15.40;99.90;;;;;;4823857;29;20054;-77
2023/06/18 03:17:02;;;;;;;0.20;0.20;;;15.40;99.90;;;;;;4842100;29;20391;-76
2023/06/18 03:19:28;;;;;;;0.10;0.10;;;15.40;99.90;;;;;;4821952;29;20093;-75
2023/06/18 03:21:54;;;;;;;0.20;0.20;;;15.40;99.90;;;;;;4813205;29;20050;-76
2023/06/18 03:24:19;;;;;;;0.20;0.20;;;15.40;99.90;;;;;;4810714;29;20046;-76
2023/06/18 03:26:45;;;;;;;0.20;0.20;;;15.40;99.90;;;;;;4820912;29;20050;-76
2023/06/18 03:29:11;;;;;;;0.20;0.20;;;15.50;99.90;;;;;;4839750;29;20068;-76
2023/06/18 03:31:39;;;;;;;0.20;0.20;;;15.50;99.90;;;;;;4820985;29;20160;-76
2023/06/18 03:34:06;;;;;;;0.10;0.10;;;15.50;99.90;;;;;;4839279;29;20521;-76
2023/06/18 03:36:39;;;;;;;0.20;0.20;;;15.60;99.90;;;;;;4823071;29;20061;-77
2023/06/18 03:39:05;;;;;;;0.10;0.10;;;15.50;99.90;;;;;;4838447;29;20511;-76
2023/06/18 03:41:32;;;;;;;0.20;0.20;;;15.50;99.90;;;;;;4819621;29;20140;-76
2023/06/18 03:43:58;;;;;;;0.10;0.10;;;15.50;99.90;;;;;;4838019;29;20803;-76
2023/06/18 03:46:23;;;;;;;0.20;0.20;;;15.60;99.90;;;;;;4838881;29;20050;-76
2023/06/18 03:48:49;;;;;;;0.20;0.20;;;15.70;99.90;;;;;;4822300;29;20388;-75
2023/06/18 03:51:15;;;;;;;0.20;0.20;;;15.60;99.90;;;;;;4822586;29;20495;-76
2023/06/18 03:53:40;;;;;;;0.20;0.20;;;15.60;99.90;;;;;;4823939;29;20068;-76
2023/06/18 03:56:08;;;;;;;0.20;0.20;;;15.70;99.90;;;;;;4820572;29;20054;-76
2023/06/18 03:58:33;;;;;;;0.20;0.20;;;15.70;99.90;;;;;;4822773;29;20046;-76
2023/06/18 04:00:59;;;;;;;0.17;0.17;;;15.70;99.90;;;;;;4820486;29;20140;-78
2023/06/18 04:03:25;;;;;;;0.10;0.10;;;15.70;99.90;;;;;;4820623;29;20054;-76
2023/06/18 04:05:51;;;;;;;0.20;0.20;;;15.80;99.90;;;;;;4840222;29;20057;-76
2023/06/18 04:08:16;;;;;;;0.15;0.15;;;15.80;99.90;;;;;;4823725;29;20066;-76
2023/06/18 04:10:43;;;;;;;0.20;0.20;;;15.80;99.90;;;;;;4822131;29;20057;-77
2023/06/18 04:13:15;;;;;;;0.20;0.20;;;15.80;99.90;;;;;;4820689;29;20146;-76
2023/06/18 04:15:41;;;;;;;0.20;0.20;;;15.90;99.90;;;;;;4820148;29;20054;-76
2023/06/18 04:18:07;;;;;;;0.20;0.20;;;15.90;99.90;;;;;;4820730;29;20163;-76
2023/06/18 04:20:33;;;;;;;0.10;0.10;;;16.00;99.90;;;;;;4821583;29;20077;-77
2023/06/18 04:22:59;;;;;;;0.20;0.20;;;16.00;99.90;;;;;;4820599;29;20372;-77
2023/06/18 04:25:24;;;;;;;0.20;0.20;;;16.10;99.90;;;;;;4818776;29;20090;-76
2023/06/18 04:27:50;;;;;;;0.10;0.10;;;16.10;99.90;;;;;;4822890;29;20045;-76
2023/06/18 04:30:16;;;;;;;0.10;0.10;;;16.10;99.90;;;;;;4834585;29;20048;-76
2023/06/18 04:32:41;;;;;;;0.20;0.20;;;16.10;99.90;;;;;;4806096;29;20051;-76
2023/06/18 04:35:07;;;;;;;0.20;0.20;;;16.20;99.90;;;;;;4835840;29;20058;-76
2023/06/18 04:37:33;;;;;;;0.20;0.20;;;16.20;99.90;;;;;;4838043;29;20510;-76
2023/06/18 04:39:59;;;;;;;0.20;0.20;;;16.20;99.90;;;;;;4821632;29;20054;-76
2023/06/18 04:42:25;;;;;;;0.20;0.20;;;16.20;99.90;;;;;;4812886;29;20042;-76
2023/06/18 04:44:50;;;;;;;0.10;0.10;;;16.30;99.90;;;;;;4834251;29;20124;-76
2023/06/18 04:47:16;;;;;;;0.20;0.20;;;16.30;99.90;;;;;;4837295;29;20045;-76
2023/06/18 04:49:43;;;;;;;0.20;0.20;;;16.30;99.90;;;;;;4821105;29;20070;-76
2023/06/18 04:52:10;;;;;;;0.20;0.20;;;16.30;99.90;;;;;;4831478;29;20050;-76
2023/06/18 04:54:36;;;;;;;0.17;0.17;;;16.40;99.90;;;;;;4829369;29;20050;-76
2023/06/18 04:57:01;;;;;;;0.20;0.20;;;16.40;99.90;;;;;;4822541;29;20483;-76
2023/06/18 04:59:27;;;;;;;0.20;0.20;;;16.40;99.90;;;;;;4822061;29;20050;-76
2023/06/18 05:01:54;;;;;;;0.20;0.20;;;16.50;99.90;;;;;;4829737;29;20053;-76
2023/06/18 05:04:20;;;;;;;0.20;0.20;;;16.50;99.90;;;;;;4825027;29;20056;-76
2023/06/18 05:06:45;;;;;;;0.20;0.20;;;16.50;99.90;;;;;;4822002;29;20053;-76
2023/06/18 05:09:11;;;;;;;0.10;0.10;;;16.50;99.90;;;;;;4838937;29;22021;-76
2023/06/18 05:11:36;;;;;;;0.20;0.20;;;16.60;99.90;;;;;;4838695;29;20050;-76
2023/06/18 05:14:05;;;;;;;0.20;0.20;;;16.60;99.90;;;;;;4822096;29;20042;-76
2023/06/18 05:16:31;;;;;;;0.17;0.17;;;16.60;99.90;;;;;;4837874;29;20129;-76
2023/06/18 05:18:57;;;;;;;0.20;0.20;;;16.70;99.90;;;;;;4821164;29;20061;-75
2023/06/18 05:21:22;;;;;;;0.13;0.13;;;16.80;99.90;;;;;;4817936;29;20046;-76
2023/06/18 05:23:48;;;;;;;0.20;0.20;;;16.70;99.90;;;;;;4822711;29;20058;-75
2023/06/18 05:26:14;;;;;;;0.20;0.20;;;16.80;99.90;;;;;;4813381;29;20171;-76
2023/06/18 05:28:39;;;;;;;0.10;0.10;;;16.80;99.90;;;;;;4813409;29;20494;-76
2023/06/18 05:31:05;;;;;;;0.20;0.20;;;16.80;99.90;;;;;;4820763;29;20478;-76
2023/06/18 05:33:31;;;;;;;0.20;0.20;;;16.90;99.90;;;;;;4817102;29;20045;-76
2023/06/18 05:35:58;;;;;;;0.30;0.30;;;16.90;99.90;;;;;;4836083;29;20073;-76
2023/06/18 05:38:24;;;;;;;0.20;0.20;;;17.00;99.90;;;;;;4806717;29;20080;-77
2023/06/18 05:40:50;;;;;;;0.17;0.17;;;17.00;99.90;;;;;;4827487;29;20049;-76
2023/06/18 05:43:16;;;;;;;0.20;0.20;;;17.00;99.90;;;;;;4819853;29;20046;-76
2023/06/18 05:45:41;;;;;;;0.20;0.20;;;17.00;99.90;;;;;;4838108;29;20045;-76
2023/06/18 05:48:09;;;;;;;0.20;0.20;;;16.90;99.90;;;;;;4838385;29;20042;-76
2023/06/18 05:50:35;;;;;;;0.20;0.20;;;17.10;99.90;;;;;;4820734;29;20081;-76
2023/06/18 05:53:01;;;;;;;0.20;0.20;;;17.10;99.90;;;;;;4829684;29;20093;-76
2023/06/18 05:55:26;;;;;;;0.17;0.17;;;17.20;99.90;;;;;;4814619;29;20453;-76
2023/06/18 05:57:52;;;;;;;0.20;0.20;;;17.20;99.90;;;;;;4820769;29;20441;-76
2023/06/18 06:00:18;;;;;;;0.20;0.20;;;17.30;99.90;;;;;;4820498;29;20057;-75
2023/06/18 06:02:45;;;;;;;0.20;0.20;;;17.30;99.90;;;;;;4821695;29;20065;-75
2023/06/18 06:05:11;;;;;;;0.20;0.20;;;17.40;99.90;;;;;;4820495;29;20054;-76
2023/06/18 06:07:36;;;;;;;0.20;0.20;;;17.50;99.90;;;;;;4826617;29;20049;-76
2023/06/18 06:10:02;;;;;;;0.20;0.20;;;17.60;99.90;;;;;;4834172;29;20061;-75
2023/06/18 06:12:28;;;;;;;0.20;0.20;;;17.60;99.90;;;;;;4817165;29;20041;-76
2023/06/18 06:14:53;;;;;;;0.10;0.10;;;17.60;99.90;;;;;;4816444;29;20125;-76
2023/06/18 06:17:19;;;;;;;0.20;0.20;;;17.70;99.90;;;;;;4811026;29;20194;-76
2023/06/18 06:19:45;;;;;;;0.20;0.20;;;17.80;99.90;;;;;;4824375;29;20435;-77
2023/06/18 06:22:11;;;;;;;0.15;0.15;;;17.80;99.90;;;;;;4822283;29;20082;-77
2023/06/18 06:24:36;;;;;;;0.10;0.10;;;17.90;99.90;;;;;;4839101;29;20136;-76
2023/06/18 06:27:02;;;;;;;0.20;0.20;;;17.90;99.90;;;;;;4840418;29;20479;-77
2023/06/18 06:29:27;;;;;;;0.10;0.10;;;18.00;99.90;;;;;;4824213;29;20053;-77
2023/06/18 06:31:53;;;;;;;0.20;0.20;;;18.10;99.90;;;;;;4839980;29;20045;-77
2023/06/18 06:34:20;;;;;;;0.20;0.20;;;18.10;99.90;;;;;;4813625;29;20046;-77
2023/06/18 06:36:46;;;;;;;0.20;0.20;;;18.10;99.90;;;;;;4825260;29;20057;-77
2023/06/18 06:39:11;;;;;;;0.28;0.28;;;18.20;99.90;;;;;;4823721;29;20105;-77
2023/06/18 06:41:37;;;;;;;0.20;0.20;;;18.20;99.90;;;;;;4840019;29;20046;-77
2023/06/18 06:44:03;;;;;;;0.20;0.20;;;18.30;99.90;;;;;;4822756;29;20042;-77
2023/06/18 06:46:29;;;;;;;0.20;0.20;;;18.30;99.90;;;;;;4823087;29;20530;-77
2023/06/18 06:48:54;;;;;;;0.20;0.20;;;18.30;99.90;;;;;;4822413;29;20046;-77
2023/06/18 06:51:20;;;;;;;0.20;0.20;;;18.40;99.90;;;;;;4822066;29;20050;-77
2023/06/18 06:53:45;;;;;;;0.13;0.13;;;18.50;99.90;;;;;;4823181;29;20045;-77
2023/06/18 06:56:11;;;;;;;0.20;0.20;;;18.50;99.90;;;;;;4824847;29;20053;-78
2023/06/18 06:58:37;;;;;;;0.20;0.20;;;18.60;99.90;;;;;;4812970;29;20187;-77
2023/06/18 07:01:02;;;;;;;0.20;0.20;;;18.60;99.90;;;;;;4838837;29;20259;-78
2023/06/18 07:03:28;;;;;;;0.20;0.20;;;18.70;99.90;;;;;;4813506;29;20137;-77
2023/06/18 07:05:54;;;;;;;0.15;0.15;;;18.70;99.90;;;;;;4821789;29;20148;-77
2023/06/18 07:08:19;;;;;;;0.20;0.20;;;18.80;99.90;;;;;;4832151;29;20539;-78
2023/06/18 07:10:45;;;;;;;0.20;0.20;;;18.80;99.90;;;;;;4816274;29;20046;-77
2023/06/18 07:13:12;;;;;;;0.10;0.10;;;18.90;99.90;;;;;;4814509;29;20084;-77
2023/06/18 07:15:38;;;;;;;0.20;0.20;;;18.90;99.90;;;;;;4820562;29;20120;-77
2023/06/18 07:18:03;;;;;;;0.13;0.13;;;19.00;99.90;;;;;;4819890;29;20508;-77
2023/06/18 07:20:29;;;;;;;0.20;0.20;;;19.10;99.90;;;;;;4830984;29;20136;-77
2023/06/18 07:22:55;;;;;;;0.20;0.20;;;19.10;99.90;;;;;;4840785;29;20493;-77
2023/06/18 07:25:21;;;;;;;0.20;0.20;;;19.20;99.90;;;;;;4819575;29;20510;-76
2023/06/18 07:27:46;;;;;;;0.32;0.20;;;19.20;99.90;;;;;;4816277;29;20129;-74
2023/06/18 07:30:12;;;;;;;0.20;0.20;;;19.30;99.90;;;;;;4815979;29;20069;-75
2023/06/18 07:32:38;;;;;;;0.20;0.20;;;19.30;99.90;;;;;;4819398;29;20058;-75
2023/06/18 07:35:05;;;;;;;0.15;0.15;;;19.30;99.90;;;;;;4831124;29;20526;-76
2023/06/18 07:37:31;;;;;;;0.20;0.20;;;19.40;99.90;;;;;;4814810;29;20116;-76
2023/06/18 07:39:57;;;;;;;0.20;0.20;;;19.40;99.90;;;;;;4822976;29;20503;-75
2023/06/18 07:42:22;;;;;;;0.20;0.20;;;19.40;99.90;;;;;;4823583;29;20086;-77
2023/06/18 07:44:48;;;;;;;0.20;0.20;;;19.40;99.90;;;;;;4831114;29;20086;-77
2023/06/18 07:47:13;;;;;;;0.20;0.20;;;19.50;99.90;;;;;;4814718;29;20101;-77
2023/06/18 07:49:39;;;;;;;0.10;0.10;;;19.60;99.90;;;;;;4831845;29;20050;-77
2023/06/18 07:52:06;;;;;;;0.20;0.20;;;19.70;99.90;;;;;;4815698;29;20064;-77
2023/06/18 07:54:34;;;;;;;0.10;0.10;;;19.70;99.90;;;;;;4813948;29;20094;-77
2023/06/18 07:57:01;;;;;;;0.10;0.10;;;19.80;99.90;;;;;;4831420;29;20037;-76
2023/06/18 07:59:26;;;;;;;0.20;0.20;;;19.80;99.90;;;;;;4816380;29;20042;-77
2023/06/18 08:01:52;;;;;;;0.20;0.20;;;19.90;99.90;;;;;;4830180;29;20061;-77
2023/06/18 08:04:18;;;;;;;0.20;0.20;;;20.00;99.90;;;;;;4814250;29;20053;-76
2023/06/18 08:06:48;;;;;;;0.10;0.10;;;20.00;99.90;;;;;;4819418;29;20054;-76
2023/06/18 08:09:14;;;;;;;0.20;0.20;;;20.10;99.90;;;;;;4811449;29;20051;-76
2023/06/18 08:11:39;;;;;;;0.20;0.20;;;20.10;99.90;;;;;;4813200;29;20042;-76
2023/06/18 08:14:05;;;;;;;0.20;0.20;;;20.20;99.90;;;;;;4817124;29;20042;-77
2023/06/18 08:16:31;;;;;;;0.20;0.20;;;20.20;99.90;;;;;;4819886;29;20049;-77
2023/06/18 08:18:56;;;;;;;0.20;0.20;;;20.30;99.90;;;;;;4813097;29;20483;-76
2023/06/18 08:21:22;;;;;;;0.22;0.22;;;20.30;99.90;;;;;;4830604;29;20057;-77
2023/06/18 08:23:48;;;;;;;0.20;0.20;;;20.40;99.90;;;;;;4815986;29;20133;-77
2023/06/18 08:26:14;;;;;;;0.20;0.20;;;20.40;99.90;;;;;;4831609;29;20087;-82
2023/06/18 08:28:40;;;;;;;0.20;0.20;;;20.50;99.90;;;;;;4820290;29;20053;-75
2023/06/18 08:31:06;;;;;;;0.20;0.20;;;20.50;99.90;;;;;;4828911;29;20054;-76
2023/06/18 08:33:31;;;;;;;0.20;0.20;;;20.60;99.90;;;;;;4833842;29;20133;-77
2023/06/18 08:35:57;;;;;;;0.20;0.20;;;20.70;99.90;;;;;;4827472;29;20724;-76
2023/06/18 08:38:23;;;;;;;0.20;0.20;;;20.80;99.90;;;;;;4821569;29;20078;-77
2023/06/18 08:41:02;;;;;;;0.20;0.20;;;20.90;99.90;;;;;;4816349;29;20042;-77
2023/06/18 08:43:32;;;;;;;3.20;0.63;;;21.00;99.90;;;;;;4832654;29;20962;-77
2023/06/18 08:46:10;;;;;;;0.20;0.20;;;21.00;99.90;;;;;;4836536;29;20129;-77
2023/06/18 08:48:52;;;;;;;0.20;0.20;;;21.10;99.90;;;;;;4820953;29;20068;-77
2023/06/18 08:51:19;;;;;;;0.20;0.20;;;21.20;99.90;;;;;;4823569;29;20073;-78
2023/06/18 08:53:54;;;;;;;0.20;0.20;;;21.20;99.90;;;;;;4831911;29;20093;-77
2023/06/18 08:56:22;;;;;;;0.20;0.20;;;21.30;99.90;;;;;;4834582;29;20085;-78
2023/06/18 08:58:50;;;;;;;0.20;0.20;;;21.40;99.90;;;;;;4815158;29;20046;-77
2023/06/18 09:01:16;;;;;;;0.20;0.20;;;21.50;99.90;;;;;;4814795;29;20443;-77
2023/06/18 09:03:43;;;;;;;0.20;0.20;;;21.60;99.90;;;;;;4828842;29;20056;-77
2023/06/18 09:06:11;;;;;;;0.20;0.20;;;21.70;99.90;;;;;;4831069;29;20506;-76
2023/06/18 09:08:37;;;;;;;0.20;0.20;;;21.80;99.90;;;;;;4813866;29;20050;-76
2023/06/18 09:11:04;;;;;;;0.20;0.20;;;21.90;99.90;;;;;;4829892;29;20042;-76
2023/06/18 09:13:30;;;;;;;0.20;0.20;;;21.90;99.90;;;;;;4814332;29;20590;-77
2023/06/18 09:15:55;;;;;;;0.20;0.20;;;22.00;99.90;;;;;;4812002;29;20487;-77
2023/06/18 09:18:25;;;;;;;1.10;0.28;;;22.10;99.90;;;;;;4816127;29;20046;-76
2023/06/18 09:20:54;;;;;;;0.20;0.20;;;22.20;99.90;;;;;;4834873;29;20046;-76
2023/06/18 09:23:19;;;;;;;0.20;0.20;;;22.20;99.90;;;;;;4820911;29;20133;-77
2023/06/18 09:25:55;;;;;;;0.20;0.20;;;22.40;99.90;;;;;;4837961;29;20132;-76
2023/06/18 09:28:23;;;;;;;0.20;0.20;;;22.40;99.90;;;;;;4828777;29;20041;-77
2023/06/18 09:30:54;;;;;;;0.20;0.20;;;22.50;99.90;;;;;;4828920;29;20057;-76
2023/06/18 09:33:49;;;;;;;;;;;22.60;99.90;;;;;;4811916;29;20057;-76
2023/06/18 09:36:15;;;;;;;0.20;0.20;;;22.70;99.90;;;;;;4820317;29;20423;-75
2023/06/18 09:38:42;;;;;;;0.20;0.20;;;22.80;99.90;;;;;;4812659;29;20058;-76
2023/06/18 09:41:17;;;;;;;0.20;0.20;;;22.80;99.90;;;;;;4833880;29;20515;-76
2023/06/18 09:43:46;;;;;;;0.20;0.20;;;22.90;99.90;;;;;;4832007;29;20038;-78
2023/06/18 09:46:12;;;;;;;0.20;0.20;;;23.00;99.90;;;;;;4811245;29;20058;-76
2023/06/18 09:48:46;;;;;;;0.20;0.20;;;23.10;99.90;;;;;;4814020;29;20130;-82
2023/06/18 09:51:15;;;;;;;0.20;0.20;;;23.20;99.90;;;;;;4837870;29;20185;-77
2023/06/18 09:53:40;;;;;;;0.20;0.20;;;23.30;99.90;;;;;;4842037;29;20085;-77
2023/06/18 09:56:16;;;;;;;0.20;0.20;;;23.40;99.90;;;;;;4841950;29;20073;-76
2023/06/18 09:58:50;;;;;;;0.20;0.20;;;23.50;99.90;;;;;;4820247;29;20349;-77
2023/06/18 10:01:17;;;;;;;0.20;0.20;;;23.60;99.90;;;;;;4824255;29;20050;-77
2023/06/18 10:03:43;;;;;;;0.22;0.22;;;23.70;99.90;;;;;;4840697;29;20102;-77
2023/06/18 10:06:11;;;;;;;0.30;0.30;;;23.80;99.90;;;;;;4823901;29;20058;-77
2023/06/18 10:08:40;;;;;;;0.20;0.20;;;23.90;99.90;;;;;;4829472;29;20354;-78
2023/06/18 10:11:09;;;;;;;0.20;0.20;;;23.90;99.60;;;;;;4828550;29;20089;-77
2023/06/18 10:13:47;;;;;;;0.20;0.20;;;24.00;99.20;;;;;;4822158;29;20050;-77
2023/06/18 10:16:18;;;;;;;0.20;0.20;;;24.10;99.20;;;;;;4840814;29;20049;-78
2023/06/18 10:19:09;;;;;;;0.20;0.20;;;24.20;98.80;;;;;;4824421;29;20057;-78
2023/06/18 10:21:36;;;;;;;;;;;24.30;98.50;;;;;;4830699;29;20489;-77
2023/06/18 10:24:08;;;;;;;0.20;0.20;;;24.40;98.20;;;;;;4839768;29;19928;-77
2023/06/18 10:26:36;;;;;;;0.20;0.20;;;24.50;98.10;;;;;;4841327;29;20133;-77
2023/06/18 10:29:03;;;;;;;0.20;0.20;;;24.50;97.80;;;;;;4824197;29;20574;-77
2023/06/18 10:31:29;;;;;;;0.20;0.20;;;24.60;97.50;;;;;;4818543;29;20052;-78
2023/06/18 10:33:56;;;;;;;0.28;0.28;;;24.70;97.10;;;;;;4821469;29;20077;-76
2023/06/18 10:36:23;;;;;;;0.20;0.20;;;24.70;96.90;;;;;;4822064;29;20054;-77
2023/06/18 10:38:49;;;;;;;0.20;0.20;;;24.80;96.70;;;;;;4832471;29;20471;-77
2023/06/18 10:41:19;;;;;;;0.20;0.20;;;24.80;96.40;;;;;;4812419;29;20122;-77
2023/06/18 10:43:53;;;;;;;0.20;0.20;;;24.90;96.10;;;;;;4812120;29;20052;-77
2023/06/18 10:46:20;;;;;;;0.20;0.20;;;24.90;95.80;;;;;;4835090;29;20042;-76
2023/06/18 10:49:12;;;;;;;0.22;0.20;;;25.00;95.60;;;;;;4818583;29;20444;-76
2023/06/18 10:51:38;;;;;;;0.20;0.20;;;25.10;95.40;;;;;;4821142;29;20514;-76
2023/06/18 10:54:21;;;;;;;0.20;0.20;;;25.10;95.30;;;;;;4837891;29;20042;-76
2023/06/18 10:56:55;;;;;;;0.20;0.20;;;25.20;95.00;;;;;;4838603;29;20050;-76
2023/06/18 10:59:33;;;;;;;0.20;0.20;;;25.30;94.90;;;;;;4821451;29;20050;-76
2023/06/18 11:02:00;;;;;;;0.20;0.20;;;25.30;94.50;;;;;;4821208;29;20053;-77
2023/06/18 11:04:33;;;;;;;0.20;0.20;;;25.40;94.50;;;;;;4839055;29;20186;-76
2023/06/18 11:07:18;;;;;;;0.20;0.20;;;25.50;94.60;;;;;;4837315;29;20042;-77
2023/06/18 11:10:05;;;;;;;0.20;0.20;;;25.50;94.10;;;;;;4819098;29;20483;-80
2023/06/18 11:12:35;;;;;;;0.20;0.20;;;25.70;93.90;;;;;;4834431;29;20459;-77
2023/06/18 11:15:18;;;;;;;0.20;0.20;;;25.80;93.60;;;;;;4818940;29;20510;-76
2023/06/18 11:17:53;;;;;;;0.20;0.20;;;25.80;93.50;;;;;;4831008;29;20449;-77
2023/06/18 11:20:21;;;;;;;0.20;0.20;;;25.90;93.20;;;;;;4811056;29;20529;-77
2023/06/18 11:22:47;;;;;;;0.20;0.20;;;25.90;93.10;;;;;;4835906;29;20042;-77
2023/06/18 11:25:15;;;;;;;0.20;0.20;;;25.90;93.00;;;;;;4823974;29;20054;-77
2023/06/18 11:27:42;;;;;;;0.20;0.20;;;26.00;92.90;;;;;;4835404;29;20143;-77
2023/06/18 11:30:13;;;;;;;0.20;0.20;;;26.00;92.80;;;;;;4838022;29;20463;-76
2023/06/18 11:32:40;;;;;;;0.20;0.20;;;26.10;92.80;;;;;;4836787;29;20480;-77
2023/06/18 11:35:07;;;;;;;0.20;0.20;;;26.10;92.80;;;;;;4827044;29;20521;-76
2023/06/18 11:37:43;;;;;;;0.20;0.20;;;26.00;92.60;;;;;;4813700;29;20073;-77
2023/06/18 11:40:10;;;;;;;0.30;0.30;;;26.10;92.40;;;;;;4822107;29;20064;-76
2023/06/18 11:42:47;;;;;;;0.20;0.20;;;26.10;92.00;;;;;;4840271;29;20118;-76
2023/06/18 11:45:14;;;;;;;0.20;0.20;;;26.20;91.80;;;;;;4823862;29;20053;-76
2023/06/18 11:47:46;;;;;;;0.20;0.20;;;26.20;92.00;;;;;;4818807;29;20053;-76
2023/06/18 11:50:11;;;;;;;0.20;0.20;;;26.30;92.10;;;;;;4832854;29;20050;-76
2023/06/18 11:52:37;;;;;;;0.20;0.20;;;26.30;92.20;;;;;;4822427;29;20046;-76
2023/06/18 11:55:07;;;;;;;0.20;0.20;;;26.30;92.00;;;;;;4836759;29;20045;-76
2023/06/18 11:57:33;;;;;;;0.15;0.15;;;26.40;92.10;;;;;;4834383;29;20410;-76
2023/06/18 11:59:59;;;;;;;0.17;0.17;;;26.40;91.90;;;;;;4815116;29;20460;-76
2023/06/18 12:02:27;;;;;;;0.20;0.20;;;26.50;91.90;;;;;;4816015;29;20368;-75
2023/06/18 12:05:00;;;;;;;0.20;0.20;;;26.50;91.80;;;;;;4813646;29;20453;-76
2023/06/18 12:07:26;;;;;;;0.20;0.20;;;26.60;91.70;;;;;;4815853;29;20410;-76
2023/06/18 12:09:53;;;;;;;0.20;0.20;;;26.70;91.80;;;;;;4821906;29;20049;-76
2023/06/18 12:12:37;;;;;;;0.50;0.35;;;26.70;91.70;;;;;;4813932;29;20273;-77
2023/06/18 12:15:06;;;;;;;0.20;0.20;;;26.80;91.50;;;;;;4836180;29;20054;-76
2023/06/18 12:17:53;;;;;;;0.20;0.20;;;26.80;91.30;;;;;;4812149;29;20045;-77
2023/06/18 12:20:21;;;;;;;0.20;0.20;;;26.80;91.20;;;;;;4809617;29;20254;-77
2023/06/18 12:22:47;;;;;;;0.20;0.20;;;26.90;90.90;;;;;;4811787;29;20136;-76
2023/06/18 12:25:14;;;;;;;0.20;0.20;;;26.90;90.90;;;;;;4812443;29;20077;-76
2023/06/18 12:27:41;;;;;;;0.20;0.20;;;27.00;91.10;;;;;;4813270;29;20431;-77
2023/06/18 12:30:09;;;;;;;0.20;0.20;;;27.10;91.10;;;;;;4814713;29;20072;-77
2023/06/18 12:32:36;;;;;;;0.20;0.20;;;27.20;91.10;;;;;;4829100;29;20083;-77
2023/06/18 12:35:15;;;;;;;0.20;0.20;;;27.30;91.30;;;;;;4816737;29;20064;-76
2023/06/18 12:37:46;;;;;;;0.20;0.20;;;27.40;91.00;;;;;;4813583;29;20054;-76
2023/06/18 12:40:14;;;;;;;;;;;27.60;91.10;;;;;;4814504;29;20076;-76
2023/06/18 12:42:41;;;;;;;0.20;0.20;;;27.70;90.70;;;;;;4829003;29;19928;-77
2023/06/18 12:45:07;;;;;;;0.20;0.20;;;27.90;90.80;;;;;;4830885;29;20056;-76
2023/06/18 12:47:39;;;;;;;0.20;0.20;;;28.00;90.40;;;;;;4811743;29;20109;-77
2023/06/18 12:50:06;;;;;;;0.20;0.20;;;28.20;90.40;;;;;;4811090;29;20057;-76
2023/06/18 12:52:41;;;;;;;0.10;0.10;;;28.30;90.20;;;;;;4814949;29;20090;-76